KRYY 220150Z VRB03KT 10SM CLR 23/15 A3024 RMK AO2 SLP961 T02330150 $